Time;durP1;ratioP1;P1;durP2;ratioP2;P2;SDS_P1;SDS_P2;PMS_P1;PMS_P2;Temp;Humidity;BMP_temperature;BMP_pressure;BME280_temperature;BME280_humidity;BME280_pressure;Samples;Min_cycle;Max_cycle;Signal;HPM_P1;HPM_P2
2023/06/14 00:02:18;;;;;;;7.28;2.28;;;16.30;71.20;;;;;;5028989;28;20570;-72
2023/06/14 00:04:44;;;;;;;4.75;2.15;;;16.30;71.20;;;;;;5067373;28;20054;-73
2023/06/14 00:07:09;;;;;;;5.78;2.13;;;16.20;71.50;;;;;;5033491;28;20067;-73
2023/06/14 00:09:35;;;;;;;6.28;2.50;;;16.20;71.80;;;;;;5033563;28;20044;-73
2023/06/14 00:12:01;;;;;;;6.07;2.28;;;16.20;72.00;;;;;;5045714;28;20040;-72
2023/06/14 00:14:27;;;;;;;5.03;2.60;;;16.20;72.20;;;;;;5043807;28;20052;-73
2023/06/14 00:16:57;;;;;;;3.72;1.85;;;16.20;72.40;;;;;;5045963;28;20044;-73
2023/06/14 00:19:23;;;;;;;6.78;2.67;;;16.10;72.50;;;;;;5049372;28;20032;-73
2023/06/14 00:21:49;;;;;;;4.95;2.25;;;16.10;73.00;;;;;;5047214;28;20566;-73
2023/06/14 00:24:17;;;;;;;4.28;1.98;;;16.00;73.30;;;;;;5031061;28;20050;-74
2023/06/14 00:26:43;;;;;;;5.65;1.80;;;16.00;73.50;;;;;;5032490;28;20094;-72
2023/06/14 00:29:09;;;;;;;5.90;2.30;;;16.00;73.90;;;;;;5026559;28;20728;-74
2023/06/14 00:31:35;;;;;;;6.22;2.47;;;15.90;74.10;;;;;;5020354;28;20103;-73
2023/06/14 00:34:00;;;;;;;4.97;2.53;;;15.90;74.40;;;;;;5044268;28;20048;-73
2023/06/14 00:36:26;;;;;;;4.15;2.65;;;15.80;75.30;;;;;;5031791;28;20036;-73
2023/06/14 00:38:52;;;;;;;4.00;1.98;;;15.80;74.80;;;;;;5047252;28;20033;-73
2023/06/14 00:41:18;;;;;;;5.93;2.20;;;15.80;75.30;;;;;;5024336;28;20049;-73
2023/06/14 00:43:44;;;;;;;5.32;2.28;;;15.70;75.60;;;;;;5027173;28;20040;-73
2023/06/14 00:46:10;;;;;;;4.10;2.20;;;15.70;76.10;;;;;;5015474;28;20078;-73
2023/06/14 00:48:37;;;;;;;6.18;2.38;;;15.70;76.50;;;;;;5044440;28;20562;-73
2023/06/14 00:51:03;;;;;;;6.35;2.38;;;15.60;76.80;;;;;;5041615;28;20048;-72
2023/06/14 00:53:31;;;;;;;7.25;2.38;;;15.60;77.20;;;;;;5035202;28;20071;-74
2023/06/14 00:55:57;;;;;;;7.30;2.35;;;15.60;77.50;;;;;;5042262;28;20163;-73
2023/06/14 00:58:23;;;;;;;3.88;2.10;;;15.60;77.90;;;;;;5040228;28;20116;-73
2023/06/14 01:00:49;;;;;;;5.97;2.28;;;15.50;78.20;;;;;;5058645;28;20044;-73
2023/06/14 01:03:21;;;;;;;3.50;2.20;;;15.50;78.60;;;;;;5042754;28;20047;-73
2023/06/14 01:05:48;;;;;;;4.57;2.22;;;15.50;78.90;;;;;;5015140;28;20059;-73
2023/06/14 01:08:45;;;;;;;5.82;2.38;;;15.40;79.20;;;;;;5022398;28;20059;-73
2023/06/14 01:11:43;;;;;;;4.70;1.75;;;15.40;79.50;;;;;;5041275;28;20072;-73
2023/06/14 01:14:10;;;;;;;6.22;2.53;;;15.30;80.00;;;;;;4982212;28;20062;-73
2023/06/14 01:16:39;;;;;;;7.20;2.13;;;15.30;80.50;;;;;;5025460;28;20098;-73
2023/06/14 01:19:08;;;;;;;8.23;2.28;;;15.30;80.90;;;;;;5038138;28;20140;-72
2023/06/14 01:21:41;;;;;;;4.55;1.98;;;15.30;81.30;;;;;;5036554;28;20789;-73
2023/06/14 01:24:11;;;;;;;4.97;2.42;;;15.20;81.60;;;;;;5011843;28;20052;-73
2023/06/14 01:26:38;;;;;;;7.00;2.40;;;15.20;82.00;;;;;;5010554;28;20040;-73
2023/06/14 01:29:04;;;;;;;6.90;2.40;;;15.20;82.30;;;;;;5041121;28;20037;-73
2023/06/14 01:31:40;;;;;;;4.90;2.20;;;15.10;82.90;;;;;;5037151;28;20040;-73
2023/06/14 01:34:10;;;;;;;5.57;1.98;;;15.10;83.30;;;;;;5027633;28;20040;-74
2023/06/14 01:36:39;;;;;;;5.35;2.40;;;15.10;83.90;;;;;;5040462;28;20044;-74
2023/06/14 01:39:06;;;;;;;4.15;2.40;;;15.00;84.20;;;;;;5056563;28;20052;-73
2023/06/14 01:41:33;;;;;;;4.00;2.40;;;15.00;84.60;;;;;;5020926;28;20348;-73
2023/06/14 01:44:00;;;;;;;4.32;2.17;;;15.00;85.00;;;;;;5059524;28;20131;-73
2023/06/14 01:46:26;;;;;;;4.93;2.33;;;14.90;85.50;;;;;;5033261;28;20926;-73
2023/06/14 01:48:52;;;;;;;4.82;2.70;;;14.90;86.00;;;;;;5027021;28;20146;-73
2023/06/14 01:51:18;;;;;;;4.57;2.10;;;14.90;86.50;;;;;;5041195;28;20063;-73
2023/06/14 01:53:43;;;;;;;4.78;2.30;;;14.80;87.00;;;;;;5011123;28;20579;-74
2023/06/14 01:56:09;;;;;;;4.70;2.08;;;14.90;87.50;;;;;;4995978;28;20058;-73
2023/06/14 01:58:35;;;;;;;5.78;2.47;;;14.80;87.90;;;;;;5041466;28;20121;-73
2023/06/14 02:01:02;;;;;;;6.82;2.80;;;14.80;88.60;;;;;;5007707;28;20044;-74
2023/06/14 02:03:27;;;;;;;8.60;2.40;;;14.80;89.10;;;;;;5033043;28;20083;-73
2023/06/14 02:05:55;;;;;;;4.13;2.00;;;14.70;89.50;;;;;;5029942;28;20072;-75
2023/06/14 02:08:21;;;;;;;6.20;2.20;;;14.70;90.00;;;;;;5046951;28;20560;-74
2023/06/14 02:10:46;;;;;;;5.03;2.50;;;14.70;90.20;;;;;;5045789;28;20161;-74
2023/06/14 02:13:12;;;;;;;8.40;3.05;;;14.60;90.50;;;;;;5030474;28;20408;-74
2023/06/14 02:15:38;;;;;;;3.83;1.80;;;14.60;90.80;;;;;;5033414;28;20507;-73
2023/06/14 02:18:04;;;;;;;4.95;2.28;;;14.50;91.10;;;;;;5033390;28;20064;-74
2023/06/14 02:20:31;;;;;;;5.13;2.30;;;14.50;91.40;;;;;;5013293;28;21229;-75
2023/06/14 02:22:57;;;;;;;6.03;2.30;;;14.40;91.70;;;;;;5067189;28;20068;-74
2023/06/14 02:25:23;;;;;;;5.20;2.65;;;14.40;92.10;;;;;;5045080;28;20040;-75
2023/06/14 02:27:48;;;;;;;6.00;2.67;;;14.40;92.50;;;;;;5046464;28;20485;-74
2023/06/14 02:30:15;;;;;;;5.32;2.63;;;14.40;92.70;;;;;;5052204;28;20680;-74
2023/06/14 02:32:44;;;;;;;6.43;2.47;;;14.30;92.90;;;;;;5033194;28;20068;-74
2023/06/14 02:35:10;;;;;;;3.95;2.17;;;14.30;93.20;;;;;;5049940;28;20461;-73
2023/06/14 02:37:36;;;;;;;4.78;2.50;;;14.30;93.60;;;;;;5030742;28;20072;-73
2023/06/14 02:40:01;;;;;;;5.47;2.30;;;14.20;93.90;;;;;;5049093;28;20051;-74
2023/06/14 02:42:27;;;;;;;4.35;2.30;;;14.20;94.30;;;;;;5047836;28;20377;-73
2023/06/14 02:44:53;;;;;;;6.05;2.90;;;14.20;94.50;;;;;;5020463;28;20044;-74
2023/06/14 02:47:19;;;;;;;3.55;2.20;;;14.20;94.80;;;;;;5064833;28;20043;-73
2023/06/14 02:49:47;;;;;;;4.72;2.50;;;14.10;95.10;;;;;;5050717;28;20120;-74
2023/06/14 02:52:14;;;;;;;7.18;2.60;;;14.10;95.40;;;;;;5046164;28;20040;-73
2023/06/14 02:54:40;;;;;;;6.32;2.47;;;14.10;95.80;;;;;;5050732;28;20040;-73
2023/06/14 02:57:07;;;;;;;7.45;2.45;;;14.10;96.00;;;;;;5051062;28;20394;-73
2023/06/14 02:59:35;;;;;;;4.25;2.33;;;14.10;96.30;;;;;;5030897;28;20131;-73
2023/06/14 03:02:00;;;;;;;4.30;2.70;;;14.00;96.70;;;;;;5065466;28;20474;-73
2023/06/14 03:04:26;;;;;;;5.18;2.50;;;14.00;97.00;;;;;;5048659;28;20040;-73
2023/06/14 03:06:53;;;;;;;5.95;2.45;;;14.00;97.30;;;;;;5077098;28;20053;-75
2023/06/14 03:09:20;;;;;;;4.47;2.63;;;14.00;97.70;;;;;;5051712;28;20048;-74
2023/06/14 03:11:46;;;;;;;6.38;2.88;;;13.90;98.00;;;;;;5064192;28;20117;-74
2023/06/14 03:14:17;;;;;;;5.88;2.80;;;13.90;98.50;;;;;;5051737;28;20047;-74
2023/06/14 03:16:42;;;;;;;5.57;2.45;;;13.90;98.80;;;;;;5032023;28;20127;-73
2023/06/14 03:19:08;;;;;;;5.35;2.83;;;13.90;99.20;;;;;;5033071;28;20526;-74
2023/06/14 03:21:34;;;;;;;5.97;2.88;;;13.80;99.50;;;;;;5047960;28;20048;-73
2023/06/14 03:24:00;;;;;;;5.57;3.05;;;13.80;99.90;;;;;;5033531;28;20056;-73
2023/06/14 03:26:26;;;;;;;5.93;2.97;;;13.80;99.90;;;;;;5060462;28;20060;-74
2023/06/14 03:28:52;;;;;;;6.35;2.92;;;13.80;99.90;;;;;;5068869;28;20036;-73
2023/06/14 03:31:19;;;;;;;6.43;3.17;;;13.80;99.90;;;;;;5030732;28;20100;-74
2023/06/14 03:33:44;;;;;;;6.47;2.88;;;13.70;99.90;;;;;;5033664;28;20044;-73
2023/06/14 03:36:10;;;;;;;6.13;3.00;;;13.80;99.90;;;;;;5033679;28;20136;-74
2023/06/14 03:38:36;;;;;;;8.70;3.30;;;13.70;99.90;;;;;;5067604;28;20032;-74
2023/06/14 03:41:02;;;;;;;5.50;3.10;;;13.70;99.90;;;;;;5029725;28;20046;-74
2023/06/14 03:43:29;;;;;;;5.68;3.30;;;13.70;99.90;;;;;;5018482;28;20048;-74
2023/06/14 03:45:55;;;;;;;6.00;2.83;;;13.70;99.90;;;;;;5063954;28;20040;-74
2023/06/14 03:48:21;;;;;;;5.03;3.00;;;13.80;99.90;;;;;;5069622;28;20052;-74
2023/06/14 03:50:47;;;;;;;6.32;2.90;;;13.80;99.90;;;;;;5031333;28;20098;-73
2023/06/14 03:53:13;;;;;;;5.40;3.15;;;13.80;99.90;;;;;;5028557;28;20407;-73
2023/06/14 03:55:39;;;;;;;6.30;3.17;;;13.80;99.90;;;;;;5065143;28;20058;-74
2023/06/14 03:58:05;;;;;;;4.07;2.90;;;13.80;99.90;;;;;;5062674;28;20516;-74
2023/06/14 04:00:32;;;;;;;5.47;3.00;;;13.80;99.90;;;;;;5044394;28;20127;-74
2023/06/14 04:02:57;;;;;;;6.70;3.33;;;13.80;99.90;;;;;;5043355;28;20071;-74
2023/06/14 04:05:26;;;;;;;6.25;3.25;;;13.70;99.90;;;;;;5052035;28;20116;-74
2023/06/14 04:07:52;;;;;;;6.43;3.42;;;13.80;99.90;;;;;;5056523;28;20047;-75
2023/06/14 04:10:18;;;;;;;5.63;3.20;;;13.80;99.90;;;;;;5041971;28;20052;-74
2023/06/14 04:12:43;;;;;;;6.65;3.63;;;13.80;99.90;;;;;;5015900;28;20041;-75
2023/06/14 04:15:10;;;;;;;4.90;3.05;;;13.80;99.90;;;;;;5071255;28;20050;-75
2023/06/14 04:17:38;;;;;;;4.95;3.10;;;13.90;99.90;;;;;;5053272;28;20074;-74
2023/06/14 04:20:06;;;;;;;6.72;2.88;;;13.90;99.90;;;;;;5050530;28;20438;-74
2023/06/14 04:22:33;;;;;;;5.07;3.20;;;13.90;99.90;;;;;;5038161;28;20530;-75
2023/06/14 04:24:59;;;;;;;5.43;3.35;;;13.90;99.90;;;;;;5069229;28;20044;-74
2023/06/14 04:27:30;;;;;;;5.00;3.00;;;14.00;99.90;;;;;;5033252;28;20105;-74
2023/06/14 04:29:57;;;;;;;5.57;3.50;;;14.00;99.90;;;;;;5058466;28;20040;-74
2023/06/14 04:32:26;;;;;;;5.53;3.35;;;14.10;99.90;;;;;;5061118;28;20036;-74
2023/06/14 04:35:00;;;;;;;6.35;3.20;;;14.10;99.90;;;;;;5066793;28;20463;-75
2023/06/14 04:37:29;;;;;;;7.78;3.95;;;14.10;99.90;;;;;;5030784;28;20046;-74
2023/06/14 04:39:55;;;;;;;6.75;3.78;;;14.20;99.90;;;;;;5048263;28;20059;-75
2023/06/14 04:42:24;;;;;;;6.65;3.38;;;14.30;99.90;;;;;;5062407;28;20046;-74
2023/06/14 04:44:55;;;;;;;8.88;3.40;;;14.30;99.90;;;;;;5047161;28;20055;-74
2023/06/14 04:47:21;;;;;;;5.13;3.17;;;14.40;99.90;;;;;;5060016;28;20385;-74
2023/06/14 04:49:47;;;;;;;5.63;3.33;;;14.50;99.90;;;;;;5046379;28;20429;-74
2023/06/14 04:52:13;;;;;;;7.50;3.47;;;14.60;99.90;;;;;;5033537;28;20040;-74
2023/06/14 04:54:41;;;;;;;6.40;3.55;;;14.60;99.90;;;;;;5047527;28;20040;-74
2023/06/14 04:57:09;;;;;;;6.78;3.45;;;14.70;99.90;;;;;;5046127;28;20407;-74
2023/06/14 04:59:35;;;;;;;6.78;3.20;;;14.80;99.90;;;;;;5064835;28;20496;-74
2023/06/14 05:02:01;;;;;;;7.57;3.35;;;14.90;99.90;;;;;;5032358;28;20036;-74
2023/06/14 05:04:30;;;;;;;6.53;3.63;;;14.90;99.90;;;;;;5030046;28;20083;-75
2023/06/14 05:06:56;;;;;;;6.70;3.40;;;15.00;99.90;;;;;;5065973;28;20032;-75
2023/06/14 05:09:22;;;;;;;7.70;3.17;;;15.10;99.90;;;;;;5014736;28;20044;-75
2023/06/14 05:11:47;;;;;;;6.57;3.25;;;15.30;99.90;;;;;;5046803;28;20036;-74
2023/06/14 05:14:14;;;;;;;6.60;3.40;;;15.30;99.90;;;;;;5046428;28;20416;-75
2023/06/14 05:16:40;;;;;;;8.02;3.63;;;15.40;99.90;;;;;;5064637;28;20050;-75
2023/06/14 05:19:06;;;;;;;5.13;3.28;;;15.40;99.90;;;;;;5062767;28;20052;-75
2023/06/14 05:21:34;;;;;;;5.68;3.28;;;15.50;99.90;;;;;;5059353;28;20083;-74
2023/06/14 05:24:00;;;;;;;10.23;3.80;;;15.60;99.90;;;;;;5045306;28;20562;-75
2023/06/14 05:26:30;;;;;;;7.55;4.07;;;15.60;99.90;;;;;;5060947;28;20131;-75
2023/06/14 05:28:56;;;;;;;6.18;3.80;;;15.70;99.90;;;;;;5042687;28;20033;-74
2023/06/14 05:31:25;;;;;;;7.40;3.70;;;15.80;99.90;;;;;;5042874;28;20675;-75
2023/06/14 05:33:52;;;;;;;5.30;3.60;;;15.80;99.90;;;;;;5062258;28;20118;-75
2023/06/14 05:36:18;;;;;;;6.13;3.53;;;15.90;99.90;;;;;;5064302;28;20094;-75
2023/06/14 05:38:45;;;;;;;6.68;3.60;;;16.00;99.90;;;;;;5062695;28;20043;-74
2023/06/14 05:41:11;;;;;;;5.25;3.55;;;16.00;99.90;;;;;;5044842;28;20074;-76
2023/06/14 05:43:37;;;;;;;7.03;3.58;;;16.10;99.90;;;;;;5064495;28;20130;-75
2023/06/14 05:46:03;;;;;;;6.68;3.50;;;16.20;99.90;;;;;;5059458;28;20108;-75
2023/06/14 05:48:30;;;;;;;5.85;3.70;;;16.20;99.90;;;;;;5062068;28;20044;-76
2023/06/14 05:50:56;;;;;;;7.07;3.45;;;16.30;99.90;;;;;;5065050;28;20345;-75
2023/06/14 05:53:22;;;;;;;8.88;3.58;;;16.40;99.90;;;;;;5042488;28;20052;-74
2023/06/14 05:55:50;;;;;;;7.00;3.53;;;16.40;99.90;;;;;;5033391;28;20051;-75
2023/06/14 05:58:16;;;;;;;5.60;3.30;;;16.60;99.90;;;;;;5058388;28;20059;-74
2023/06/14 06:00:42;;;;;;;7.32;3.60;;;16.60;99.90;;;;;;5010761;28;20041;-74
2023/06/14 06:03:09;;;;;;;6.47;3.47;;;16.80;99.90;;;;;;5044424;28;20071;-74
2023/06/14 06:05:34;;;;;;;6.55;3.45;;;16.80;99.90;;;;;;5043148;28;20410;-74
2023/06/14 06:08:00;;;;;;;8.07;3.60;;;16.90;99.90;;;;;;5041639;28;20044;-73
2023/06/14 06:10:26;;;;;;;5.57;3.00;;;17.00;99.60;;;;;;5046182;28;20044;-74
2023/06/14 06:12:54;;;;;;;8.40;3.33;;;17.00;99.80;;;;;;5031183;28;20040;-73
2023/06/14 06:15:20;;;;;;;5.78;3.15;;;17.10;99.20;;;;;;5043868;28;20113;-73
2023/06/14 06:17:46;;;;;;;6.40;2.80;;;17.20;98.80;;;;;;5044063;28;20118;-74
2023/06/14 06:20:14;;;;;;;6.78;3.40;;;17.30;98.40;;;;;;5030394;28;20559;-73
2023/06/14 06:22:40;;;;;;;6.20;3.33;;;17.30;98.00;;;;;;5043543;28;20056;-74
2023/06/14 06:25:06;;;;;;;6.15;3.28;;;17.40;97.60;;;;;;5030349;28;20047;-74
2023/06/14 06:27:33;;;;;;;4.22;2.90;;;17.50;97.90;;;;;;5048526;28;20048;-72
2023/06/14 06:29:58;;;;;;;5.90;3.00;;;17.60;97.90;;;;;;5066277;28;20507;-71
2023/06/14 06:32:24;;;;;;;8.07;2.97;;;17.80;97.40;;;;;;5059536;28;20548;-74
2023/06/14 06:34:51;;;;;;;36.38;8.98;;;17.80;97.10;;;;;;5030756;28;20052;-73
2023/06/14 06:37:17;;;;;;;5.30;2.60;;;17.90;97.10;;;;;;5062586;28;20055;-74
2023/06/14 06:39:43;;;;;;;7.45;3.00;;;18.00;96.50;;;;;;5045725;28;20036;-73
2023/06/14 06:42:10;;;;;;;28.60;6.35;;;18.10;96.90;;;;;;5046934;28;20047;-74
2023/06/14 06:44:38;;;;;;;6.00;2.90;;;18.10;97.10;;;;;;5063967;28;20151;-73
2023/06/14 06:47:04;;;;;;;4.63;2.60;;;18.20;97.40;;;;;;5049117;28;20036;-73
2023/06/14 06:49:30;;;;;;;7.38;3.17;;;18.30;96.70;;;;;;5047308;28;20044;-73
2023/06/14 06:52:04;;;;;;;5.90;2.85;;;18.40;95.60;;;;;;5034075;28;20036;-73
2023/06/14 06:54:31;;;;;;;5.90;3.00;;;18.50;94.40;;;;;;5063799;28;20581;-73
2023/06/14 06:56:57;;;;;;;5.20;2.45;;;18.60;93.80;;;;;;5049462;28;20036;-74
2023/06/14 06:59:23;;;;;;;4.70;2.53;;;18.70;93.60;;;;;;5046235;28;20185;-73
2023/06/14 07:01:48;;;;;;;6.13;2.60;;;18.80;93.00;;;;;;5044290;28;20407;-73
2023/06/14 07:04:15;;;;;;;5.60;2.83;;;18.90;92.30;;;;;;5033524;28;20052;-74
2023/06/14 07:06:43;;;;;;;4.50;2.65;;;19.00;92.30;;;;;;5069470;28;20055;-73
2023/06/14 07:09:12;;;;;;;5.43;2.70;;;19.10;92.40;;;;;;5050664;28;20062;-74
2023/06/14 07:11:39;;;;;;;6.00;2.60;;;19.20;92.00;;;;;;5064786;28;20043;-72
2023/06/14 07:14:05;;;;;;;4.07;2.63;;;19.30;92.50;;;;;;5048243;28;20069;-71
2023/06/14 07:16:31;;;;;;;6.90;2.78;;;19.40;91.60;;;;;;5065890;28;20563;-72
2023/06/14 07:18:57;;;;;;;6.03;2.65;;;19.50;91.10;;;;;;5046032;28;20044;-72
2023/06/14 07:21:25;;;;;;;4.78;2.70;;;19.60;90.30;;;;;;5047389;28;20044;-72
2023/06/14 07:23:52;;;;;;;3.40;2.28;;;19.70;90.50;;;;;;5064498;28;20056;-72
2023/06/14 07:26:18;;;;;;;7.40;2.70;;;19.80;90.60;;;;;;5031474;28;20063;-71
2023/06/14 07:28:46;;;;;;;4.93;3.05;;;19.90;89.90;;;;;;5046779;28;20381;-72
2023/06/14 07:31:16;;;;;;;8.13;3.00;;;20.00;90.50;;;;;;5042513;28;20047;-73
2023/06/14 07:33:48;;;;;;;7.05;2.55;;;20.00;90.60;;;;;;5048876;28;20403;-71
2023/06/14 07:36:14;;;;;;;6.00;2.40;;;20.10;91.00;;;;;;5046787;28;20051;-71
2023/06/14 07:38:40;;;;;;;7.15;2.45;;;20.20;89.90;;;;;;5045208;28;20462;-71
2023/06/14 07:41:06;;;;;;;6.13;2.70;;;20.20;89.00;;;;;;5050956;28;20127;-71
2023/06/14 07:43:32;;;;;;;5.13;2.42;;;20.30;89.10;;;;;;5063494;28;20482;-72
2023/06/14 07:45:58;;;;;;;4.03;2.30;;;20.40;88.20;;;;;;5064486;28;20039;-72
2023/06/14 07:48:23;;;;;;;4.60;2.30;;;20.50;86.00;;;;;;5033367;28;20071;-72
2023/06/14 07:50:49;;;;;;;5.32;2.70;;;20.60;84.00;;;;;;5031606;28;20049;-73
2023/06/14 07:53:15;;;;;;;7.78;2.30;;;20.60;81.10;;;;;;5061254;28;20068;-72
2023/06/14 07:55:44;;;;;;;7.05;3.08;;;20.70;83.50;;;;;;5048134;28;20044;-72
2023/06/14 07:58:10;;;;;;;4.75;2.88;;;20.70;85.80;;;;;;5063847;28;20428;-71
2023/06/14 08:00:39;;;;;;;10.27;3.25;;;20.80;86.20;;;;;;5080597;28;20066;-71
2023/06/14 08:03:05;;;;;;;4.90;2.70;;;20.90;85.60;;;;;;5061165;28;20496;-71
2023/06/14 08:05:31;;;;;;;5.93;2.33;;;21.00;82.90;;;;;;5047893;28;20051;-71
2023/06/14 08:08:00;;;;;;;5.47;2.38;;;21.10;84.10;;;;;;5062087;28;20044;-72
2023/06/14 08:10:26;;;;;;;4.88;2.33;;;21.20;82.90;;;;;;5031321;28;20063;-72
2023/06/14 08:12:52;;;;;;;5.70;2.20;;;21.20;81.60;;;;;;5048575;28;20132;-71
2023/06/14 08:15:18;;;;;;;5.85;2.80;;;21.20;82.10;;;;;;5059607;28;20071;-71
2023/06/14 08:17:44;;;;;;;5.90;2.53;;;21.30;82.90;;;;;;5058658;28;20057;-71
2023/06/14 08:20:11;;;;;;;6.85;3.10;;;21.30;81.40;;;;;;5047062;28;20563;-72
2023/06/14 08:22:42;;;;;;;9.43;3.00;;;21.40;81.30;;;;;;5051939;28;20134;-71
2023/06/14 08:25:08;;;;;;;6.32;2.47;;;21.40;81.80;;;;;;5043556;28;20056;-76
2023/06/14 08:27:34;;;;;;;6.00;2.40;;;21.50;81.40;;;;;;5034008;28;20162;-76
2023/06/14 08:30:00;;;;;;;3.97;2.38;;;21.70;80.60;;;;;;5035522;28;20048;-76
2023/06/14 08:32:26;;;;;;;5.75;2.20;;;21.80;79.40;;;;;;5014398;28;20047;-77
2023/06/14 08:34:52;;;;;;;5.43;2.15;;;21.80;79.00;;;;;;5032969;28;20173;-76
2023/06/14 08:37:17;;;;;;;4.63;2.10;;;21.90;77.40;;;;;;5031304;28;20045;-76
2023/06/14 08:39:44;;;;;;;4.03;2.53;;;22.00;78.20;;;;;;5044486;28;20132;-76
2023/06/14 08:42:10;;;;;;;7.38;2.70;;;21.80;79.20;;;;;;5034759;28;20048;-76
2023/06/14 08:44:36;;;;;;;6.43;2.72;;;21.80;77.10;;;;;;5042336;28;20102;-77
2023/06/14 08:47:05;;;;;;;5.13;2.70;;;21.90;75.20;;;;;;5051218;28;20046;-77
2023/06/14 08:49:32;;;;;;;5.28;1.88;;;21.80;76.40;;;;;;5013594;28;20045;-72
2023/06/14 08:52:00;;;;;;;7.10;2.25;;;21.80;75.10;;;;;;5039492;28;20044;-73
2023/06/14 08:54:30;;;;;;;5.78;2.38;;;21.90;76.80;;;;;;5042689;28;20053;-72
2023/06/14 08:56:59;;;;;;;5.13;2.10;;;22.00;75.90;;;;;;5032157;28;20047;-72
2023/06/14 08:59:27;;;;;;;4.05;2.13;;;22.10;75.50;;;;;;5043377;28;20059;-72
2023/06/14 09:01:54;;;;;;;6.30;2.45;;;22.20;74.30;;;;;;5041571;28;20464;-72
2023/06/14 09:04:21;;;;;;;7.32;2.33;;;22.30;72.20;;;;;;5013076;28;20131;-72
2023/06/14 09:06:54;;;;;;;6.18;2.38;;;22.20;72.80;;;;;;5027113;28;20091;-72
2023/06/14 09:09:22;;;;;;;5.95;2.22;;;22.40;73.80;;;;;;5035730;28;20056;-72
2023/06/14 09:11:50;;;;;;;5.78;1.92;;;22.50;72.50;;;;;;5033523;28;20174;-72
2023/06/14 09:14:17;;;;;;;7.75;2.35;;;22.60;71.00;;;;;;5042516;28;20531;-71
2023/06/14 09:16:44;;;;;;;3.97;2.70;;;22.70;70.80;;;;;;5023631;28;20032;-72
2023/06/14 09:19:20;;;;;;;5.60;2.15;;;22.60;71.00;;;;;;5046733;28;20320;-72
2023/06/14 09:21:48;;;;;;;6.22;2.20;;;22.60;73.80;;;;;;5050033;28;20091;-72
2023/06/14 09:24:14;;;;;;;5.45;2.30;;;22.70;70.80;;;;;;5062931;28;20522;-71
2023/06/14 09:26:40;;;;;;;7.00;2.72;;;22.70;69.50;;;;;;5042727;28;20032;-72
2023/06/14 09:29:06;;;;;;;5.00;2.28;;;22.60;70.80;;;;;;5081484;28;20074;-71
2023/06/14 09:31:32;;;;;;;7.68;3.05;;;22.70;70.30;;;;;;5049191;28;20527;-71
2023/06/14 09:34:02;;;;;;;4.70;2.40;;;22.70;72.20;;;;;;5045480;28;20056;-71
2023/06/14 09:36:28;;;;;;;4.50;2.60;;;22.80;71.00;;;;;;5046997;28;20517;-71
2023/06/14 09:38:56;;;;;;;4.95;2.58;;;22.90;71.50;;;;;;5016537;28;20484;-71
2023/06/14 09:41:43;;;;;;;5.13;2.65;;;22.90;69.80;;;;;;5047480;28;20131;-71
2023/06/14 09:44:11;;;;;;;5.60;2.47;;;23.00;69.70;;;;;;5045386;28;20515;-71
2023/06/14 09:46:37;;;;;;;5.97;2.75;;;23.00;68.60;;;;;;5050977;28;20040;-72
2023/06/14 09:49:04;;;;;;;6.80;2.47;;;23.00;69.60;;;;;;5048046;28;20040;-72
2023/06/14 09:51:31;;;;;;;4.03;1.98;;;23.00;68.90;;;;;;5060956;28;20037;-71
2023/06/14 09:54:04;;;;;;;5.38;2.60;;;23.00;69.40;;;;;;5031522;28;20043;-72
2023/06/14 09:56:30;;;;;;;5.88;2.35;;;23.20;68.80;;;;;;5060202;28;20044;-71
2023/06/14 09:58:58;;;;;;;6.85;2.65;;;23.10;71.10;;;;;;5047310;28;20046;-71
2023/06/14 10:01:30;;;;;;;6.03;2.40;;;23.10;69.80;;;;;;5061542;28;20036;-71
2023/06/14 10:04:07;;;;;;;6.28;2.30;;;23.20;70.30;;;;;;5047109;28;20044;-72
2023/06/14 10:06:37;;;;;;;4.57;2.08;;;23.30;65.40;;;;;;5061955;28;20139;-72
2023/06/14 10:09:07;;;;;;;5.90;2.05;;;23.30;68.30;;;;;;5046024;28;20127;-71
2023/06/14 10:11:35;;;;;;;3.78;1.42;;;23.40;67.50;;;;;;5041034;28;20044;-71
2023/06/14 10:14:02;;;;;;;4.82;1.40;;;23.50;64.40;;;;;;5042879;28;20420;-71
2023/06/14 10:16:36;;;;;;;2.95;1.40;;;23.40;64.30;;;;;;5061781;28;20048;-71
2023/06/14 10:19:06;;;;;;;3.88;1.52;;;23.50;63.50;;;;;;5043339;28;20285;-72
2023/06/14 10:21:50;;;;;;;3.20;1.40;;;23.60;65.30;;;;;;5077389;28;20052;-72
2023/06/14 10:24:18;;;;;;;3.38;1.65;;;23.80;64.30;;;;;;5048228;28;20054;-71
2023/06/14 10:26:52;;;;;;;2.53;1.55;;;23.90;61.70;;;;;;5043903;28;20487;-72
2023/06/14 10:29:18;;;;;;;5.75;1.55;;;23.80;61.50;;;;;;5065861;28;20036;-72
2023/06/14 10:31:44;;;;;;;4.75;1.55;;;23.60;62.30;;;;;;5048743;28;20093;-72
2023/06/14 10:34:11;;;;;;;6.28;1.90;;;23.60;62.30;;;;;;5064701;28;20044;-72
2023/06/14 10:36:41;;;;;;;5.03;1.58;;;23.80;63.30;;;;;;5049109;28;20571;-72
2023/06/14 10:39:19;;;;;;;3.88;1.20;;;24.00;60.00;;;;;;5081620;28;20033;-72
2023/06/14 10:41:56;;;;;;;4.55;1.55;;;24.00;59.30;;;;;;5049491;28;20045;-71
2023/06/14 10:44:22;;;;;;;6.10;1.90;;;23.80;59.80;;;;;;5051852;28;20040;-71
2023/06/14 10:46:49;;;;;;;2.17;1.27;;;23.70;60.10;;;;;;5063298;28;20674;-72
2023/06/14 10:49:19;;;;;;;3.42;1.30;;;23.80;60.70;;;;;;5064500;28;20518;-73
2023/06/14 10:51:49;;;;;;;;;;;23.90;59.30;;;;;;5051861;28;20090;-71
2023/06/14 10:54:15;;;;;;;4.53;1.33;;;23.90;61.00;;;;;;5050046;28;19920;-71
2023/06/14 10:56:48;;;;;;;4.10;1.50;;;24.10;60.10;;;;;;5046944;28;20036;-72
2023/06/14 10:59:17;;;;;;;3.28;1.30;;;24.20;58.70;;;;;;5065283;28;20496;-72
2023/06/14 11:01:52;;;;;;;4.57;1.50;;;24.20;59.30;;;;;;5066976;28;20363;-72
2023/06/14 11:04:20;;;;;;;6.50;1.65;;;24.20;57.50;;;;;;5076821;28;20577;-72
2023/06/14 11:06:53;;;;;;;2.45;1.40;;;24.10;57.80;;;;;;5051149;28;20047;-72
2023/06/14 11:09:30;;;;;;;3.55;1.20;;;24.10;58.10;;;;;;5065177;28;20052;-71
2023/06/14 11:11:56;;;;;;;4.30;1.80;;;24.20;59.60;;;;;;5066402;28;20096;-72
2023/06/14 11:14:22;;;;;;;5.28;1.45;;;24.20;57.40;;;;;;5049610;28;20094;-73
2023/06/14 11:16:49;;;;;;;3.55;1.67;;;24.10;57.40;;;;;;5047886;28;20036;-72
2023/06/14 11:19:17;;;;;;;4.15;1.60;;;24.10;58.30;;;;;;5035797;28;20040;-70
2023/06/14 11:21:52;;;;;;;2.38;1.30;;;24.10;59.50;;;;;;5048052;28;20048;-71
2023/06/14 11:24:18;;;;;;;4.03;1.48;;;24.30;61.40;;;;;;5066971;28;20559;-72
2023/06/14 11:26:43;;;;;;;4.22;1.48;;;24.30;58.50;;;;;;5059560;28;20126;-72
2023/06/14 11:29:09;;;;;;;2.95;1.33;;;24.40;57.90;;;;;;5033539;28;20185;-71
2023/06/14 11:31:35;;;;;;;2.63;1.35;;;24.40;58.10;;;;;;5014608;28;20131;-72
2023/06/14 11:34:01;;;;;;;6.22;1.60;;;24.30;56.20;;;;;;5049317;28;20064;-72
2023/06/14 11:36:31;;;;;;;3.40;1.42;;;24.30;57.80;;;;;;5065451;28;20040;-72
2023/06/14 11:39:03;;;;;;;4.55;1.55;;;24.30;57.00;;;;;;5066912;28;20507;-71
2023/06/14 11:41:40;;;;;;;6.47;1.70;;;24.50;57.90;;;;;;5061052;28;20563;-71
2023/06/14 11:44:07;;;;;;;4.07;1.50;;;24.60;56.80;;;;;;5046558;28;20039;-72
2023/06/14 11:46:34;;;;;;;5.28;1.52;;;24.70;57.00;;;;;;5052155;28;20097;-72
2023/06/14 11:49:03;;;;;;;5.32;1.52;;;24.50;55.90;;;;;;5062505;28;20043;-73
2023/06/14 11:51:35;;;;;;;2.80;1.50;;;24.50;57.90;;;;;;5034505;28;20506;-72
2023/06/14 11:54:06;;;;;;;3.33;1.58;;;24.60;56.60;;;;;;5044132;28;20173;-71
2023/06/14 11:56:32;;;;;;;2.70;1.42;;;24.60;56.60;;;;;;5049790;28;20050;-71
2023/06/14 11:58:58;;;;;;;5.07;1.50;;;24.70;57.60;;;;;;5047855;28;20126;-73
2023/06/14 12:01:25;;;;;;;3.85;1.50;;;24.60;56.20;;;;;;5030205;28;20485;-71
2023/06/14 12:03:53;;;;;;;3.50;1.42;;;24.60;57.20;;;;;;5064032;28;20486;-71
2023/06/14 12:06:33;;;;;;;4.95;1.42;;;24.80;56.20;;;;;;5063660;28;20194;-71
2023/06/14 12:08:59;;;;;;;;;;;24.80;56.20;;;;;;5060400;28;20518;-71
2023/06/14 12:11:33;;;;;;;2.80;1.55;;;24.90;55.10;;;;;;5034953;28;20758;-72
2023/06/14 12:13:58;;;;;;;3.08;1.60;;;24.90;56.40;;;;;;5058623;28;20622;-71
2023/06/14 12:16:33;;;;;;;3.72;1.70;;;25.10;57.50;;;;;;5048228;28;20135;-71
2023/06/14 12:19:16;;;;;;;2.70;1.67;;;25.10;54.60;;;;;;5048298;28;20066;-71
2023/06/14 12:21:47;;;;;;;5.00;1.83;;;25.10;56.30;;;;;;5044744;28;20923;-72
2023/06/14 12:24:16;;;;;;;4.30;1.40;;;25.30;56.60;;;;;;5062843;28;20048;-72
2023/06/14 12:26:45;;;;;;;3.88;2.22;;;25.40;56.20;;;;;;5058832;28;20558;-72
2023/06/14 12:29:12;;;;;;;3.97;1.80;;;25.50;55.60;;;;;;5065497;28;20589;-71
2023/06/14 12:31:37;;;;;;;4.35;1.70;;;25.30;55.00;;;;;;5045261;28;20442;-71
2023/06/14 12:34:04;;;;;;;4.85;1.58;;;25.30;55.40;;;;;;5045022;28;20123;-73
2023/06/14 12:36:29;;;;;;;4.05;1.50;;;25.30;54.80;;;;;;5047867;28;20035;-72
2023/06/14 12:38:55;;;;;;;3.53;1.50;;;25.30;55.90;;;;;;5047654;28;20078;-71
2023/06/14 12:41:22;;;;;;;3.17;1.52;;;25.40;55.40;;;;;;5044568;28;20055;-72
2023/06/14 12:43:48;;;;;;;3.53;1.67;;;25.40;54.50;;;;;;5059959;28;20075;-71
2023/06/14 12:46:14;;;;;;;3.08;1.40;;;25.40;54.40;;;;;;5046743;28;20036;-72
2023/06/14 12:48:40;;;;;;;4.82;1.80;;;25.40;55.10;;;;;;5047870;28;20138;-72
2023/06/14 12:51:06;;;;;;;3.45;1.63;;;25.50;54.80;;;;;;5056164;28;20521;-69